sensor_id;sensor_type;location;lat;lon;timestamp;temperature;humidity
43346;DHT22;28937;51.160;4.146;2023-10-19T00:00:40;17.80;99.90
43346;DHT22;28937;51.160;4.146;2023-10-19T00:03:10;17.80;99.90
43346;DHT22;28937;51.160;4.146;2023-10-19T00:05:37;17.80;99.90
43346;DHT22;28937;51.160;4.146;2023-10-19T00:08:04;17.80;99.90
43346;DHT22;28937;51.160;4.146;2023-10-19T00:10:47;17.80;99.90
43346;DHT22;28937;51.160;4.146;2023-10-19T00:13:16;17.80;99.90
43346;DHT22;28937;51.160;4.146;2023-10-19T00:15:44;17.80;99.90
43346;DHT22;28937;51.160;4.146;2023-10-19T00:18:20;17.80;99.90
43346;DHT22;28937;51.160;4.146;2023-10-19T00:20:49;17.80;99.90
43346;DHT22;28937;51.160;4.146;2023-10-19T00:23:22;17.80;99.90
43346;DHT22;28937;51.160;4.146;2023-10-19T00:26:01;17.80;99.90
43346;DHT22;28937;51.160;4.146;2023-10-19T00:28:34;17.80;99.90
43346;DHT22;28937;51.160;4.146;2023-10-19T00:31:01;17.80;99.90
43346;DHT22;28937;51.160;4.146;2023-10-19T00:33:33;17.80;99.90
43346;DHT22;28937;51.160;4.146;2023-10-19T00:36:02;17.80;99.90
43346;DHT22;28937;51.160;4.146;2023-10-19T00:38:37;17.80;99.90
43346;DHT22;28937;51.160;4.146;2023-10-19T00:41:03;17.80;99.90
43346;DHT22;28937;51.160;4.146;2023-10-19T00:43:36;17.80;99.90
43346;DHT22;28937;51.160;4.146;2023-10-19T00:46:04;17.80;99.90
43346;DHT22;28937;51.160;4.146;2023-10-19T00:48:56;17.80;99.90
43346;DHT22;28937;51.160;4.146;2023-10-19T00:51:33;17.90;99.90
43346;DHT22;28937;51.160;4.146;2023-10-19T00:54:11;17.80;99.90
43346;DHT22;28937;51.160;4.146;2023-10-19T00:56:47;17.80;99.90
43346;DHT22;28937;51.160;4.146;2023-10-19T00:59:22;17.80;99.90
43346;DHT22;28937;51.160;4.146;2023-10-19T01:01:53;17.80;99.90
43346;DHT22;28937;51.160;4.146;2023-10-19T01:04:22;17.80;99.90
43346;DHT22;28937;51.160;4.146;2023-10-19T01:06:56;17.80;99.90
43346;DHT22;28937;51.160;4.146;2023-10-19T01:09:37;17.80;99.90
43346;DHT22;28937;51.160;4.146;2023-10-19T01:12:04;17.80;99.90
43346;DHT22;28937;51.160;4.146;2023-10-19T01:17:34;17.80;99.90
43346;DHT22;28937;51.160;4.146;2023-10-19T01:20:15;17.80;99.90
43346;DHT22;28937;51.160;4.146;2023-10-19T01:22:55;17.80;99.90
43346;DHT22;28937;51.160;4.146;2023-10-19T01:25:49;17.80;99.90
43346;DHT22;28937;51.160;4.146;2023-10-19T01:28:25;17.80;99.90
43346;DHT22;28937;51.160;4.146;2023-10-19T01:30:54;17.80;99.90
43346;DHT22;28937;51.160;4.146;2023-10-19T01:33:21;17.80;99.90
43346;DHT22;28937;51.160;4.146;2023-10-19T01:35:48;17.80;99.90
43346;DHT22;28937;51.160;4.146;2023-10-19T01:38:32;17.80;99.90
43346;DHT22;28937;51.160;4.146;2023-10-19T01:40:59;17.80;99.90
43346;DHT22;28937;51.160;4.146;2023-10-19T01:43:28;17.90;99.90
43346;DHT22;28937;51.160;4.146;2023-10-19T01:46:01;17.80;99.90
43346;DHT22;28937;51.160;4.146;2023-10-19T01:48:31;17.80;99.90
43346;DHT22;28937;51.160;4.146;2023-10-19T01:51:02;17.80;99.90
43346;DHT22;28937;51.160;4.146;2023-10-19T01:53:35;17.80;99.90
43346;DHT22;28937;51.160;4.146;2023-10-19T01:56:02;17.80;99.90
43346;DHT22;28937;51.160;4.146;2023-10-19T01:58:31;17.80;99.90
43346;DHT22;28937;51.160;4.146;2023-10-19T02:01:03;17.80;99.90
43346;DHT22;28937;51.160;4.146;2023-10-19T02:03:34;17.90;99.90
43346;DHT22;28937;51.160;4.146;2023-10-19T02:06:01;17.80;99.90
43346;DHT22;28937;51.160;4.146;2023-10-19T02:08:51;17.80;99.90
43346;DHT22;28937;51.160;4.146;2023-10-19T02:11:23;17.90;99.90
43346;DHT22;28937;51.160;4.146;2023-10-19T02:13:51;17.80;99.90
43346;DHT22;28937;51.160;4.146;2023-10-19T02:16:21;17.80;99.90
43346;DHT22;28937;51.160;4.146;2023-10-19T02:18:58;17.80;99.90
43346;DHT22;28937;51.160;4.146;2023-10-19T02:21:24;17.80;99.90
43346;DHT22;28937;51.160;4.146;2023-10-19T02:23:59;17.80;99.90
43346;DHT22;28937;51.160;4.146;2023-10-19T02:26:25;17.80;99.90
43346;DHT22;28937;51.160;4.146;2023-10-19T02:28:54;17.90;99.90
43346;DHT22;28937;51.160;4.146;2023-10-19T02:31:22;17.80;99.90
43346;DHT22;28937;51.160;4.146;2023-10-19T02:33:53;17.90;99.90
43346;DHT22;28937;51.160;4.146;2023-10-19T02:36:26;17.90;99.90
43346;DHT22;28937;51.160;4.146;2023-10-19T02:38:58;17.90;99.90
43346;DHT22;28937;51.160;4.146;2023-10-19T02:41:33;17.90;99.90
43346;DHT22;28937;51.160;4.146;2023-10-19T02:44:01;17.80;99.90
43346;DHT22;28937;51.160;4.146;2023-10-19T02:46:35;17.90;99.90
43346;DHT22;28937;51.160;4.146;2023-10-19T02:49:05;17.80;99.90
43346;DHT22;28937;51.160;4.146;2023-10-19T02:51:36;17.80;99.90
43346;DHT22;28937;51.160;4.146;2023-10-19T02:54:02;17.80;99.90
43346;DHT22;28937;51.160;4.146;2023-10-19T02:56:28;17.80;99.90
43346;DHT22;28937;51.160;4.146;2023-10-19T02:58:55;17.80;99.90
43346;DHT22;28937;51.160;4.146;2023-10-19T03:01:27;17.80;99.90
43346;DHT22;28937;51.160;4.146;2023-10-19T03:04:01;17.80;99.90
43346;DHT22;28937;51.160;4.146;2023-10-19T03:06:29;17.80;99.90
43346;DHT22;28937;51.160;4.146;2023-10-19T03:08:58;17.80;99.90
43346;DHT22;28937;51.160;4.146;2023-10-19T03:11:27;17.80;99.90
43346;DHT22;28937;51.160;4.146;2023-10-19T03:13:54;17.80;99.90
43346;DHT22;28937;51.160;4.146;2023-10-19T03:16:21;17.80;99.90
43346;DHT22;28937;51.160;4.146;2023-10-19T03:18:47;17.80;99.90
43346;DHT22;28937;51.160;4.146;2023-10-19T03:21:13;17.80;99.90
43346;DHT22;28937;51.160;4.146;2023-10-19T03:23:39;17.80;99.90
43346;DHT22;28937;51.160;4.146;2023-10-19T03:26:06;17.80;99.90
43346;DHT22;28937;51.160;4.146;2023-10-19T03:28:50;17.80;99.90
43346;DHT22;28937;51.160;4.146;2023-10-19T03:31:24;17.80;99.90
43346;DHT22;28937;51.160;4.146;2023-10-19T03:33:53;17.70;99.90
43346;DHT22;28937;51.160;4.146;2023-10-19T03:36:25;17.80;99.90
43346;DHT22;28937;51.160;4.146;2023-10-19T03:38:52;17.80;99.90
43346;DHT22;28937;51.160;4.146;2023-10-19T03:41:20;17.80;99.90
43346;DHT22;28937;51.160;4.146;2023-10-19T03:43:55;17.80;99.90
43346;DHT22;28937;51.160;4.146;2023-10-19T03:46:22;17.80;99.90
43346;DHT22;28937;51.160;4.146;2023-10-19T03:48:55;17.80;99.90
43346;DHT22;28937;51.160;4.146;2023-10-19T03:51:25;17.80;99.90
43346;DHT22;28937;51.160;4.146;2023-10-19T03:53:52;17.80;99.90
43346;DHT22;28937;51.160;4.146;2023-10-19T03:56:24;17.80;99.90
43346;DHT22;28937;51.160;4.146;2023-10-19T03:58:50;17.80;99.90
43346;DHT22;28937;51.160;4.146;2023-10-19T04:01:17;17.80;99.90
43346;DHT22;28937;51.160;4.146;2023-10-19T04:03:45;17.80;99.90
43346;DHT22;28937;51.160;4.146;2023-10-19T04:06:11;17.80;99.90
43346;DHT22;28937;51.160;4.146;2023-10-19T04:08:41;17.80;99.90
43346;DHT22;28937;51.160;4.146;2023-10-19T04:11:09;17.80;99.90
43346;DHT22;28937;51.160;4.146;2023-10-19T04:13:38;17.80;99.90
43346;DHT22;28937;51.160;4.146;2023-10-19T04:16:04;17.80;99.90
43346;DHT22;28937;51.160;4.146;2023-10-19T04:18:35;17.90;99.90
43346;DHT22;28937;51.160;4.146;2023-10-19T04:21:05;17.90;99.90
43346;DHT22;28937;51.160;4.146;2023-10-19T04:23:31;18.00;99.90
43346;DHT22;28937;51.160;4.146;2023-10-19T04:26:01;18.00;99.90
43346;DHT22;28937;51.160;4.146;2023-10-19T04:28:42;18.00;99.90
43346;DHT22;28937;51.160;4.146;2023-10-19T04:31:15;18.00;99.90
43346;DHT22;28937;51.160;4.146;2023-10-19T04:33:42;18.00;99.90
43346;DHT22;28937;51.160;4.146;2023-10-19T04:36:17;18.00;99.90
43346;DHT22;28937;51.160;4.146;2023-10-19T04:38:46;18.10;99.90
43346;DHT22;28937;51.160;4.146;2023-10-19T04:41:12;18.10;99.90
43346;DHT22;28937;51.160;4.146;2023-10-19T04:43:39;18.10;99.90
43346;DHT22;28937;51.160;4.146;2023-10-19T04:46:07;18.00;99.90
43346;DHT22;28937;51.160;4.146;2023-10-19T04:48:36;18.10;99.90
43346;DHT22;28937;51.160;4.146;2023-10-19T04:51:02;18.00;99.90
43346;DHT22;28937;51.160;4.146;2023-10-19T04:53:31;18.10;99.90
43346;DHT22;28937;51.160;4.146;2023-10-19T04:55:56;18.10;99.90
43346;DHT22;28937;51.160;4.146;2023-10-19T04:58:22;18.10;99.90
43346;DHT22;28937;51.160;4.146;2023-10-19T05:00:48;18.10;99.90
43346;DHT22;28937;51.160;4.146;2023-10-19T05:03:14;18.10;99.90
43346;DHT22;28937;51.160;4.146;2023-10-19T05:05:44;18.10;99.90
43346;DHT22;28937;51.160;4.146;2023-10-19T05:08:10;18.10;99.90
43346;DHT22;28937;51.160;4.146;2023-10-19T05:10:35;18.10;99.90
43346;DHT22;28937;51.160;4.146;2023-10-19T05:13:01;18.10;99.90
43346;DHT22;28937;51.160;4.146;2023-10-19T05:15:27;18.10;99.90
43346;DHT22;28937;51.160;4.146;2023-10-19T05:17:53;18.10;99.90
43346;DHT22;28937;51.160;4.146;2023-10-19T05:20:19;18.10;99.90
43346;DHT22;28937;51.160;4.146;2023-10-19T05:22:46;18.10;99.90
43346;DHT22;28937;51.160;4.146;2023-10-19T05:25:12;18.00;99.90
43346;DHT22;28937;51.160;4.146;2023-10-19T05:27:39;18.00;99.90
43346;DHT22;28937;51.160;4.146;2023-10-19T05:30:05;18.00;99.90
43346;DHT22;28937;51.160;4.146;2023-10-19T05:32:31;18.00;99.90
43346;DHT22;28937;51.160;4.146;2023-10-19T05:34:58;18.10;99.90
43346;DHT22;28937;51.160;4.146;2023-10-19T05:37:29;18.00;99.90
43346;DHT22;28937;51.160;4.146;2023-10-19T05:39:55;18.10;99.90
43346;DHT22;28937;51.160;4.146;2023-10-19T05:42:21;18.10;99.90
43346;DHT22;28937;51.160;4.146;2023-10-19T05:44:47;18.10;99.90
43346;DHT22;28937;51.160;4.146;2023-10-19T05:47:13;18.10;99.90
43346;DHT22;28937;51.160;4.146;2023-10-19T05:49:38;18.00;99.90
43346;DHT22;28937;51.160;4.146;2023-10-19T05:52:04;18.00;99.90
43346;DHT22;28937;51.160;4.146;2023-10-19T05:54:30;18.10;99.90
43346;DHT22;28937;51.160;4.146;2023-10-19T05:56:56;18.00;99.90
43346;DHT22;28937;51.160;4.146;2023-10-19T05:59:22;18.10;99.90
43346;DHT22;28937;51.160;4.146;2023-10-19T06:01:52;18.10;99.90
43346;DHT22;28937;51.160;4.146;2023-10-19T06:04:17;18.10;99.90
43346;DHT22;28937;51.160;4.146;2023-10-19T06:06:43;18.10;99.90
43346;DHT22;28937;51.160;4.146;2023-10-19T06:09:09;18.10;99.90
43346;DHT22;28937;51.160;4.146;2023-10-19T06:11:35;18.10;99.90
43346;DHT22;28937;51.160;4.146;2023-10-19T06:14:04;18.10;99.90
43346;DHT22;28937;51.160;4.146;2023-10-19T06:16:33;18.10;99.90
43346;DHT22;28937;51.160;4.146;2023-10-19T06:18:59;18.10;99.90
43346;DHT22;28937;51.160;4.146;2023-10-19T06:21:28;18.10;99.90
43346;DHT22;28937;51.160;4.146;2023-10-19T06:23:53;18.10;99.90
43346;DHT22;28937;51.160;4.146;2023-10-19T06:26:20;18.10;99.90
43346;DHT22;28937;51.160;4.146;2023-10-19T06:28:45;18.10;99.90
43346;DHT22;28937;51.160;4.146;2023-10-19T06:31:11;18.10;99.90
43346;DHT22;28937;51.160;4.146;2023-10-19T06:33:37;18.00;99.90
43346;DHT22;28937;51.160;4.146;2023-10-19T06:36:06;18.00;99.90
43346;DHT22;28937;51.160;4.146;2023-10-19T06:38:32;18.10;99.90
43346;DHT22;28937;51.160;4.146;2023-10-19T06:40:59;18.10;99.90
43346;DHT22;28937;51.160;4.146;2023-10-19T06:43:24;18.10;99.90
43346;DHT22;28937;51.160;4.146;2023-10-19T06:45:54;18.10;99.90
43346;DHT22;28937;51.160;4.146;2023-10-19T06:48:20;18.00;99.90
43346;DHT22;28937;51.160;4.146;2023-10-19T06:50:46;18.10;99.90
43346;DHT22;28937;51.160;4.146;2023-10-19T06:53:12;18.10;99.90
43346;DHT22;28937;51.160;4.146;2023-10-19T06:55:37;18.00;99.90
43346;DHT22;28937;51.160;4.146;2023-10-19T06:58:04;18.10;99.90
43346;DHT22;28937;51.160;4.146;2023-10-19T07:00:30;18.00;99.90
43346;DHT22;28937;51.160;4.146;2023-10-19T07:02:57;18.00;99.90
43346;DHT22;28937;51.160;4.146;2023-10-19T07:05:26;18.00;99.90
43346;DHT22;28937;51.160;4.146;2023-10-19T07:07:55;18.10;99.90
43346;DHT22;28937;51.160;4.146;2023-10-19T07:10:22;18.10;99.90
43346;DHT22;28937;51.160;4.146;2023-10-19T07:12:51;18.00;99.90
43346;DHT22;28937;51.160;4.146;2023-10-19T07:15:17;18.10;99.90
43346;DHT22;28937;51.160;4.146;2023-10-19T07:17:48;18.00;99.90
43346;DHT22;28937;51.160;4.146;2023-10-19T07:20:16;18.10;99.90
43346;DHT22;28937;51.160;4.146;2023-10-19T07:22:51;18.10;99.90
43346;DHT22;28937;51.160;4.146;2023-10-19T07:25:17;18.00;99.90
43346;DHT22;28937;51.160;4.146;2023-10-19T07:27:50;18.10;99.90
43346;DHT22;28937;51.160;4.146;2023-10-19T07:30:17;18.10;99.90
43346;DHT22;28937;51.160;4.146;2023-10-19T07:32:48;18.10;99.90
43346;DHT22;28937;51.160;4.146;2023-10-19T07:35:17;18.10;99.90
43346;DHT22;28937;51.160;4.146;2023-10-19T07:37:43;18.10;99.90
43346;DHT22;28937;51.160;4.146;2023-10-19T07:40:10;18.10;99.90
43346;DHT22;28937;51.160;4.146;2023-10-19T07:42:39;18.10;99.90
43346;DHT22;28937;51.160;4.146;2023-10-19T07:45:06;18.10;99.90
43346;DHT22;28937;51.160;4.146;2023-10-19T07:47:34;18.10;99.90
43346;DHT22;28937;51.160;4.146;2023-10-19T07:50:00;18.20;99.90
43346;DHT22;28937;51.160;4.146;2023-10-19T07:52:28;18.20;99.90
43346;DHT22;28937;51.160;4.146;2023-10-19T07:54:54;18.10;99.90
43346;DHT22;28937;51.160;4.146;2023-10-19T07:57:19;18.10;99.90
43346;DHT22;28937;51.160;4.146;2023-10-19T07:59:46;18.20;99.90
43346;DHT22;28937;51.160;4.146;2023-10-19T08:02:13;18.10;99.90
43346;DHT22;28937;51.160;4.146;2023-10-19T08:04:38;18.20;99.90
43346;DHT22;28937;51.160;4.146;2023-10-19T08:07:04;18.20;99.90
43346;DHT22;28937;51.160;4.146;2023-10-19T08:09:30;18.20;99.90
43346;DHT22;28937;51.160;4.146;2023-10-19T08:12:00;18.20;99.90
43346;DHT22;28937;51.160;4.146;2023-10-19T08:14:27;18.20;99.90
43346;DHT22;28937;51.160;4.146;2023-10-19T08:16:53;18.20;99.90
43346;DHT22;28937;51.160;4.146;2023-10-19T08:19:19;18.20;99.90
43346;DHT22;28937;51.160;4.146;2023-10-19T08:21:45;18.20;99.90
43346;DHT22;28937;51.160;4.146;2023-10-19T08:24:10;18.20;99.90
43346;DHT22;28937;51.160;4.146;2023-10-19T08:26:42;18.20;99.90
43346;DHT22;28937;51.160;4.146;2023-10-19T08:29:08;18.20;99.90
43346;DHT22;28937;51.160;4.146;2023-10-19T08:31:42;18.20;99.90
43346;DHT22;28937;51.160;4.146;2023-10-19T08:34:11;18.30;99.90
43346;DHT22;28937;51.160;4.146;2023-10-19T08:36:40;18.30;99.90
43346;DHT22;28937;51.160;4.146;2023-10-19T08:39:07;18.20;99.90
43346;DHT22;28937;51.160;4.146;2023-10-19T08:41:36;18.30;99.90
43346;DHT22;28937;51.160;4.146;2023-10-19T08:44:06;18.30;99.90
43346;DHT22;28937;51.160;4.146;2023-10-19T08:46:41;18.30;99.90
43346;DHT22;28937;51.160;4.146;2023-10-19T08:49:15;18.30;99.90
43346;DHT22;28937;51.160;4.146;2023-10-19T08:51:45;18.30;99.90
43346;DHT22;28937;51.160;4.146;2023-10-19T08:54:12;18.30;99.90
43346;DHT22;28937;51.160;4.146;2023-10-19T08:56:39;18.30;99.90
43346;DHT22;28937;51.160;4.146;2023-10-19T08:59:10;18.30;99.90
43346;DHT22;28937;51.160;4.146;2023-10-19T09:01:37;18.30;99.90
43346;DHT22;28937;51.160;4.146;2023-10-19T09:04:02;18.30;99.90
43346;DHT22;28937;51.160;4.146;2023-10-19T09:06:34;18.30;99.90
43346;DHT22;28937;51.160;4.146;2023-10-19T09:09:10;18.30;99.90
43346;DHT22;28937;51.160;4.146;2023-10-19T09:11:43;18.30;99.90
43346;DHT22;28937;51.160;4.146;2023-10-19T09:14:09;18.30;99.90
43346;DHT22;28937;51.160;4.146;2023-10-19T09:16:38;18.30;99.90
43346;DHT22;28937;51.160;4.146;2023-10-19T09:19:19;18.40;99.90
43346;DHT22;28937;51.160;4.146;2023-10-19T09:21:45;18.40;99.90
43346;DHT22;28937;51.160;4.146;2023-10-19T09:24:11;18.40;99.90
43346;DHT22;28937;51.160;4.146;2023-10-19T09:26:37;18.40;99.90
43346;DHT22;28937;51.160;4.146;2023-10-19T09:29:03;18.40;99.90
43346;DHT22;28937;51.160;4.146;2023-10-19T09:31:29;18.40;99.90
43346;DHT22;28937;51.160;4.146;2023-10-19T09:33:56;18.40;99.90
43346;DHT22;28937;51.160;4.146;2023-10-19T09:36:25;18.40;99.90
43346;DHT22;28937;51.160;4.146;2023-10-19T09:38:55;18.40;99.90
43346;DHT22;28937;51.160;4.146;2023-10-19T09:41:23;18.40;99.90
43346;DHT22;28937;51.160;4.146;2023-10-19T09:44:01;18.40;99.90
43346;DHT22;28937;51.160;4.146;2023-10-19T09:46:32;18.40;99.90
43346;DHT22;28937;51.160;4.146;2023-10-19T09:48:58;18.40;99.90
43346;DHT22;28937;51.160;4.146;2023-10-19T09:51:24;18.50;99.90
43346;DHT22;28937;51.160;4.146;2023-10-19T09:54:07;18.50;99.90
43346;DHT22;28937;51.160;4.146;2023-10-19T09:56:40;18.50;99.90
43346;DHT22;28937;51.160;4.146;2023-10-19T09:59:11;18.50;99.90
43346;DHT22;28937;51.160;4.146;2023-10-19T10:04:34;18.50;99.90
43346;DHT22;28937;51.160;4.146;2023-10-19T10:07:05;18.50;99.90
43346;DHT22;28937;51.160;4.146;2023-10-19T10:09:37;18.50;99.90
43346;DHT22;28937;51.160;4.146;2023-10-19T10:12:16;18.50;99.90
43346;DHT22;28937;51.160;4.146;2023-10-19T10:15:03;18.50;99.90
43346;DHT22;28937;51.160;4.146;2023-10-19T10:17:36;18.50;99.90
43346;DHT22;28937;51.160;4.146;2023-10-19T10:22:40;18.50;99.90
43346;DHT22;28937;51.160;4.146;2023-10-19T10:25:25;18.50;99.90
43346;DHT22;28937;51.160;4.146;2023-10-19T10:27:52;18.50;99.90
43346;DHT22;28937;51.160;4.146;2023-10-19T10:30:18;18.60;99.90
43346;DHT22;28937;51.160;4.146;2023-10-19T10:35:10;18.60;99.90
43346;DHT22;28937;51.160;4.146;2023-10-19T10:37:37;18.60;99.90
43346;DHT22;28937;51.160;4.146;2023-10-19T10:40:03;18.60;99.90
43346;DHT22;28937;51.160;4.146;2023-10-19T10:42:31;18.60;99.90
43346;DHT22;28937;51.160;4.146;2023-10-19T10:44:57;18.60;99.90
43346;DHT22;28937;51.160;4.146;2023-10-19T10:47:23;18.60;99.90
43346;DHT22;28937;51.160;4.146;2023-10-19T10:49:59;18.60;99.90
43346;DHT22;28937;51.160;4.146;2023-10-19T10:52:34;18.60;99.90
43346;DHT22;28937;51.160;4.146;2023-10-19T10:55:07;18.60;99.90
43346;DHT22;28937;51.160;4.146;2023-10-19T10:57:34;18.60;99.90
43346;DHT22;28937;51.160;4.146;2023-10-19T11:00:05;18.70;99.90
43346;DHT22;28937;51.160;4.146;2023-10-19T11:02:36;18.60;99.90
43346;DHT22;28937;51.160;4.146;2023-10-19T11:05:02;18.70;99.90
43346;DHT22;28937;51.160;4.146;2023-10-19T11:07:28;18.70;99.90
43346;DHT22;28937;51.160;4.146;2023-10-19T11:09:55;18.70;99.90
43346;DHT22;28937;51.160;4.146;2023-10-19T11:12:20;18.70;99.90
43346;DHT22;28937;51.160;4.146;2023-10-19T11:14:56;18.70;99.90
43346;DHT22;28937;51.160;4.146;2023-10-19T11:17:27;18.70;99.90
43346;DHT22;28937;51.160;4.146;2023-10-19T11:19:57;18.80;99.90
43346;DHT22;28937;51.160;4.146;2023-10-19T11:22:26;18.80;99.90
43346;DHT22;28937;51.160;4.146;2023-10-19T11:24:55;18.70;99.90
43346;DHT22;28937;51.160;4.146;2023-10-19T11:27:27;18.80;99.90
43346;DHT22;28937;51.160;4.146;2023-10-19T11:29:59;18.80;99.90
43346;DHT22;28937;51.160;4.146;2023-10-19T11:32:37;18.80;99.90
43346;DHT22;28937;51.160;4.146;2023-10-19T11:35:06;18.80;99.90
43346;DHT22;28937;51.160;4.146;2023-10-19T11:37:51;18.80;99.90
43346;DHT22;28937;51.160;4.146;2023-10-19T11:40:18;18.80;99.90
43346;DHT22;28937;51.160;4.146;2023-10-19T11:42:44;18.80;99.90
43346;DHT22;28937;51.160;4.146;2023-10-19T11:45:10;18.80;99.90
43346;DHT22;28937;51.160;4.146;2023-10-19T11:47:37;18.80;99.90
43346;DHT22;28937;51.160;4.146;2023-10-19T11:50:03;18.80;99.90
43346;DHT22;28937;51.160;4.146;2023-10-19T11:52:29;18.80;99.90
43346;DHT22;28937;51.160;4.146;2023-10-19T11:54:56;18.90;99.90
43346;DHT22;28937;51.160;4.146;2023-10-19T11:57:23;18.80;99.90
43346;DHT22;28937;51.160;4.146;2023-10-19T11:59:49;18.80;99.90
43346;DHT22;28937;51.160;4.146;2023-10-19T12:02:18;18.80;99.90
43346;DHT22;28937;51.160;4.146;2023-10-19T12:04:44;18.80;99.90
43346;DHT22;28937;51.160;4.146;2023-10-19T12:07:11;18.90;99.90
43346;DHT22;28937;51.160;4.146;2023-10-19T12:09:37;18.90;99.90
43346;DHT22;28937;51.160;4.146;2023-10-19T12:12:03;18.90;99.90
43346;DHT22;28937;51.160;4.146;2023-10-19T12:14:32;18.90;99.90
43346;DHT22;28937;51.160;4.146;2023-10-19T12:17:00;18.90;99.90
43346;DHT22;28937;51.160;4.146;2023-10-19T12:19:29;18.90;99.90
43346;DHT22;28937;51.160;4.146;2023-10-19T12:21:55;18.90;99.90
43346;DHT22;28937;51.160;4.146;2023-10-19T12:24:21;18.90;99.90
43346;DHT22;28937;51.160;4.146;2023-10-19T12:26:47;18.90;99.90
43346;DHT22;28937;51.160;4.146;2023-10-19T12:29:13;18.90;99.90
43346;DHT22;28937;51.160;4.146;2023-10-19T12:31:41;19.00;99.90
43346;DHT22;28937;51.160;4.146;2023-10-19T12:34:07;19.00;99.90
43346;DHT22;28937;51.160;4.146;2023-10-19T12:36:34;18.90;99.90
43346;DHT22;28937;51.160;4.146;2023-10-19T12:39:00;19.00;99.90
43346;DHT22;28937;51.160;4.146;2023-10-19T12:41:27;19.00;99.90
43346;DHT22;28937;51.160;4.146;2023-10-19T12:43:53;19.00;99.90
43346;DHT22;28937;51.160;4.146;2023-10-19T12:46:23;19.00;99.90
43346;DHT22;28937;51.160;4.146;2023-10-19T12:48:53;19.00;99.90
43346;DHT22;28937;51.160;4.146;2023-10-19T12:51:23;19.00;99.90
43346;DHT22;28937;51.160;4.146;2023-10-19T12:53:53;19.00;99.90
43346;DHT22;28937;51.160;4.146;2023-10-19T12:56:20;19.00;99.90
43346;DHT22;28937;51.160;4.146;2023-10-19T12:58:46;19.00;99.90
43346;DHT22;28937;51.160;4.146;2023-10-19T13:01:14;19.00;99.90
43346;DHT22;28937;51.160;4.146;2023-10-19T13:03:45;19.00;99.90
43346;DHT22;28937;51.160;4.146;2023-10-19T13:06:12;19.00;99.90
43346;DHT22;28937;51.160;4.146;2023-10-19T13:08:38;19.00;99.90
43346;DHT22;28937;51.160;4.146;2023-10-19T13:11:09;19.00;99.90
43346;DHT22;28937;51.160;4.146;2023-10-19T13:13:35;19.00;99.90
43346;DHT22;28937;51.160;4.146;2023-10-19T13:16:05;19.00;99.90
43346;DHT22;28937;51.160;4.146;2023-10-19T13:18:36;19.00;99.90
43346;DHT22;28937;51.160;4.146;2023-10-19T13:21:02;19.00;99.90
43346;DHT22;28937;51.160;4.146;2023-10-19T13:23:33;19.00;99.90
43346;DHT22;28937;51.160;4.146;2023-10-19T13:25:59;19.10;99.90
43346;DHT22;28937;51.160;4.146;2023-10-19T13:28:43;19.10;99.90
43346;DHT22;28937;51.160;4.146;2023-10-19T13:31:08;19.10;99.90
43346;DHT22;28937;51.160;4.146;2023-10-19T13:33:34;19.10;99.90
43346;DHT22;28937;51.160;4.146;2023-10-19T13:36:00;19.10;99.90
43346;DHT22;28937;51.160;4.146;2023-10-19T13:38:26;19.10;99.90
43346;DHT22;28937;51.160;4.146;2023-10-19T13:40:51;19.10;99.90
43346;DHT22;28937;51.160;4.146;2023-10-19T13:43:18;19.20;99.90
43346;DHT22;28937;51.160;4.146;2023-10-19T13:45:46;19.10;99.90
43346;DHT22;28937;51.160;4.146;2023-10-19T13:48:13;19.20;99.90
43346;DHT22;28937;51.160;4.146;2023-10-19T13:50:47;19.20;99.90
43346;DHT22;28937;51.160;4.146;2023-10-19T13:53:14;19.20;99.90
43346;DHT22;28937;51.160;4.146;2023-10-19T13:55:41;19.20;99.90
43346;DHT22;28937;51.160;4.146;2023-10-19T13:58:06;19.20;99.90
43346;DHT22;28937;51.160;4.146;2023-10-19T14:00:32;19.20;99.90
43346;DHT22;28937;51.160;4.146;2023-10-19T14:03:07;19.30;99.90
43346;DHT22;28937;51.160;4.146;2023-10-19T14:05:39;19.30;99.90
43346;DHT22;28937;51.160;4.146;2023-10-19T14:08:06;19.30;99.90
43346;DHT22;28937;51.160;4.146;2023-10-19T14:10:33;19.30;99.90
43346;DHT22;28937;51.160;4.146;2023-10-19T14:12:59;19.30;99.90
43346;DHT22;28937;51.160;4.146;2023-10-19T14:15:25;19.30;99.90
43346;DHT22;28937;51.160;4.146;2023-10-19T14:17:56;19.40;99.90
43346;DHT22;28937;51.160;4.146;2023-10-19T14:20:24;19.40;99.90
43346;DHT22;28937;51.160;4.146;2023-10-19T14:22:50;19.40;99.90
43346;DHT22;28937;51.160;4.146;2023-10-19T14:25:16;19.50;99.90
43346;DHT22;28937;51.160;4.146;2023-10-19T14:27:46;19.50;99.90
43346;DHT22;28937;51.160;4.146;2023-10-19T14:30:15;19.50;99.90
43346;DHT22;28937;51.160;4.146;2023-10-19T14:32:42;19.50;99.90
43346;DHT22;28937;51.160;4.146;2023-10-19T14:35:12;19.50;99.90
43346;DHT22;28937;51.160;4.146;2023-10-19T14:37:45;19.50;99.90
43346;DHT22;28937;51.160;4.146;2023-10-19T14:40:15;19.50;99.90
43346;DHT22;28937;51.160;4.146;2023-10-19T14:42:42;19.50;99.90
43346;DHT22;28937;51.160;4.146;2023-10-19T14:45:10;19.50;99.90
43346;DHT22;28937;51.160;4.146;2023-10-19T14:47:39;19.50;99.90
43346;DHT22;28937;51.160;4.146;2023-10-19T14:50:11;19.50;99.90
43346;DHT22;28937;51.160;4.146;2023-10-19T14:52:40;19.50;99.90
43346;DHT22;28937;51.160;4.146;2023-10-19T14:55:07;19.50;99.90
43346;DHT22;28937;51.160;4.146;2023-10-19T14:57:36;19.50;99.90
43346;DHT22;28937;51.160;4.146;2023-10-19T15:00:05;19.50;99.90
43346;DHT22;28937;51.160;4.146;2023-10-19T15:02:43;19.50;99.90
43346;DHT22;28937;51.160;4.146;2023-10-19T15:05:09;19.50;99.90
43346;DHT22;28937;51.160;4.146;2023-10-19T15:07:47;19.50;99.90
43346;DHT22;28937;51.160;4.146;2023-10-19T15:10:25;19.40;99.90
43346;DHT22;28937;51.160;4.146;2023-10-19T15:12:52;19.40;99.90
43346;DHT22;28937;51.160;4.146;2023-10-19T15:15:17;19.50;99.90
43346;DHT22;28937;51.160;4.146;2023-10-19T15:17:46;19.50;99.90
43346;DHT22;28937;51.160;4.146;2023-10-19T15:20:14;19.50;99.90
43346;DHT22;28937;51.160;4.146;2023-10-19T15:22:43;19.40;99.90
43346;DHT22;28937;51.160;4.146;2023-10-19T15:25:10;19.50;99.90
43346;DHT22;28937;51.160;4.146;2023-10-19T15:27:39;19.50;99.90
43346;DHT22;28937;51.160;4.146;2023-10-19T15:30:06;19.50;99.90
43346;DHT22;28937;51.160;4.146;2023-10-19T15:32:34;19.50;99.90
43346;DHT22;28937;51.160;4.146;2023-10-19T15:35:00;19.50;99.90
43346;DHT22;28937;51.160;4.146;2023-10-19T15:37:26;19.50;99.90
43346;DHT22;28937;51.160;4.146;2023-10-19T15:39:52;19.50;99.90
43346;DHT22;28937;51.160;4.146;2023-10-19T15:42:19;19.50;99.90
43346;DHT22;28937;51.160;4.146;2023-10-19T15:44:45;19.50;99.90
43346;DHT22;28937;51.160;4.146;2023-10-19T15:47:15;19.50;99.90
43346;DHT22;28937;51.160;4.146;2023-10-19T15:49:51;19.50;99.90
43346;DHT22;28937;51.160;4.146;2023-10-19T15:52:19;19.50;99.90